Time;durP1;ratioP1;P1;durP2;ratioP2;P2;SDS_P1;SDS_P2;PMS_P1;PMS_P2;Temp;Humidity;BMP_temperature;BMP_pressure;BME280_temperature;BME280_humidity;BME280_pressure;Samples;Min_cycle;Max_cycle;Signal;HPM_P1;HPM_P2
2023/11/20 00:02:21;;;;;;;14.23;3.50;;;;;;;13.43;100.00;100766.31;5249599;28;20027;-75
2023/11/20 00:04:53;;;;;;;13.43;3.72;;;;;;;13.37;100.00;100767.72;5251672;28;20501;-75
2023/11/20 00:07:24;;;;;;;16.65;3.67;;;;;;;13.42;100.00;100767.28;5251331;28;20037;-75
2023/11/20 00:09:56;;;;;;;10.55;3.72;;;;;;;13.41;100.00;100769.09;5250706;28;20029;-75
2023/11/20 00:12:28;;;;;;;12.88;3.88;;;;;;;13.42;100.00;100765.47;5247972;28;20037;-75
2023/11/20 00:15:00;;;;;;;15.27;3.67;;;;;;;13.43;100.00;100768.94;5230782;28;20047;-75
2023/11/20 00:17:32;;;;;;;10.98;3.10;;;;;;;13.44;100.00;100770.59;5253530;28;20029;-75
2023/11/20 00:20:06;;;;;;;16.52;5.03;;;;;;;13.43;100.00;100767.13;5252091;28;20017;-75
2023/11/20 00:22:39;;;;;;;12.75;3.58;;;;;;;13.45;100.00;100770.44;5254060;28;20482;-75
2023/11/20 00:25:10;;;;;;;12.45;3.95;;;;;;;13.48;100.00;100774.56;5251398;28;20029;-75
2023/11/20 00:27:43;;;;;;;14.00;3.92;;;;;;;13.42;100.00;100773.38;5251550;28;20043;-75
2023/11/20 00:30:15;;;;;;;13.52;3.55;;;;;;;13.47;100.00;100762.41;5253717;28;20033;-75
2023/11/20 00:32:47;;;;;;;12.98;3.47;;;;;;;13.44;100.00;100760.06;5254728;28;20040;-75
2023/11/20 00:35:18;;;;;;;11.02;3.28;;;;;;;13.46;100.00;100769.47;5250087;28;20525;-75
2023/11/20 00:37:50;;;;;;;11.90;3.47;;;;;;;13.42;100.00;100759.41;5246867;28;20025;-75
2023/11/20 00:40:22;;;;;;;13.70;3.28;;;;;;;13.47;100.00;100767.66;5253657;28;20031;-75
2023/11/20 00:42:54;;;;;;;12.95;3.25;;;;;;;13.47;100.00;100763.22;5250370;28;20033;-75
2023/11/20 00:45:26;;;;;;;14.70;3.83;;;;;;;13.47;100.00;100767.66;5251868;28;20036;-75
2023/11/20 00:47:58;;;;;;;11.73;3.23;;;;;;;13.49;100.00;100768.34;5249152;28;20048;-75
2023/11/20 00:50:30;;;;;;;10.98;3.40;;;;;;;13.48;100.00;100761.41;5253350;28;20033;-75
2023/11/20 00:53:03;;;;;;;12.23;3.38;;;;;;;13.51;100.00;100776.91;5252316;28;20037;-75
2023/11/20 00:55:34;;;;;;;13.45;3.20;;;;;;;13.51;100.00;100779.53;5234690;28;20045;-75
2023/11/20 00:58:06;;;;;;;12.93;3.63;;;;;;;13.52;100.00;100778.56;5251337;28;20474;-75
2023/11/20 01:00:38;;;;;;;11.48;3.75;;;;;;;13.45;100.00;100778.34;5252274;28;20761;-75
2023/11/20 01:03:10;;;;;;;19.50;4.22;;;;;;;13.51;100.00;100780.34;5252651;28;20017;-75
2023/11/20 01:05:42;;;;;;;12.38;3.25;;;;;;;13.50;100.00;100788.41;5252543;28;20043;-75
2023/11/20 01:08:14;;;;;;;12.88;3.67;;;;;;;13.53;100.00;100785.50;5235159;28;20037;-74
2023/11/20 01:10:46;;;;;;;12.80;3.00;;;;;;;13.54;100.00;100790.59;5253755;28;20037;-75
2023/11/20 01:13:18;;;;;;;12.50;3.15;;;;;;;13.54;100.00;100789.78;5252969;28;20027;-75
2023/11/20 01:15:49;;;;;;;21.00;3.78;;;;;;;13.56;100.00;100791.28;5252745;28;20500;-75
2023/11/20 01:18:21;;;;;;;17.45;4.05;;;;;;;13.57;100.00;100792.09;5250803;28;20382;-75
2023/11/20 01:20:53;;;;;;;13.25;4.45;;;;;;;13.57;100.00;100798.19;5248690;28;20112;-75
2023/11/20 01:23:25;;;;;;;14.85;3.28;;;;;;;13.54;100.00;100805.56;5255244;28;20029;-75
2023/11/20 01:25:57;;;;;;;15.07;3.53;;;;;;;13.53;100.00;100803.91;5251896;28;20029;-75
2023/11/20 01:28:29;;;;;;;15.13;3.85;;;;;;;13.56;100.00;100807.06;5251632;28;20039;-75
2023/11/20 01:31:01;;;;;;;16.35;4.65;;;;;;;13.55;100.00;100800.13;5231520;28;20033;-75
2023/11/20 01:33:33;;;;;;;12.75;4.15;;;;;;;13.50;100.00;100810.28;5251249;28;20479;-75
2023/11/20 01:36:05;;;;;;;18.92;4.70;;;;;;;13.49;100.00;100811.28;5251559;28;20036;-75
2023/11/20 01:38:37;;;;;;;14.33;3.97;;;;;;;13.36;100.00;100824.78;5248235;28;20033;-75
2023/11/20 01:41:09;;;;;;;16.60;4.25;;;;;;;13.30;100.00;100828.03;5252819;28;20321;-75
2023/11/20 01:43:41;;;;;;;18.83;4.57;;;;;;;13.24;100.00;100820.72;5250007;28;20115;-75
2023/11/20 01:46:14;;;;;;;13.68;3.83;;;;;;;13.19;100.00;100820.31;5250485;28;20037;-75
2023/11/20 01:48:46;;;;;;;13.07;3.38;;;;;;;13.19;100.00;100825.56;5254595;28;20025;-75
2023/11/20 01:51:18;;;;;;;14.07;4.20;;;;;;;13.15;100.00;100819.78;5254622;28;20487;-75
2023/11/20 01:53:50;;;;;;;13.18;3.88;;;;;;;13.18;100.00;100823.91;5256763;28;20036;-75
2023/11/20 01:56:24;;;;;;;13.48;3.92;;;;;;;13.17;100.00;100827.50;5254897;28;20039;-75
2023/11/20 01:59:00;;;;;;;15.75;4.13;;;;;;;13.22;100.00;100830.53;5252659;28;20048;-75
2023/11/20 02:01:32;;;;;;;11.20;3.42;;;;;;;13.13;100.00;100823.53;5239031;28;20037;-75
2023/11/20 02:04:05;;;;;;;14.45;3.60;;;;;;;13.10;100.00;100826.44;5254568;28;20033;-75
2023/11/20 02:06:37;;;;;;;13.82;4.05;;;;;;;13.07;100.00;100821.50;5257230;28;20036;-75
2023/11/20 02:09:09;;;;;;;12.73;3.92;;;;;;;13.06;100.00;100820.63;5255626;28;20025;-75
2023/11/20 02:11:45;;;;;;;11.23;3.78;;;;;;;13.10;100.00;100822.00;5256683;28;20408;-75
2023/11/20 02:14:17;;;;;;;17.08;4.82;;;;;;;13.01;100.00;100820.25;5252600;28;20036;-75
2023/11/20 02:16:50;;;;;;;15.23;4.55;;;;;;;13.04;100.00;100816.53;5236965;28;20418;-75
2023/11/20 02:19:21;;;;;;;12.90;4.38;;;;;;;13.02;100.00;100806.13;5255374;28;20029;-75
2023/11/20 02:21:53;;;;;;;14.18;4.78;;;;;;;12.98;100.00;100807.41;5254115;28;20067;-75
2023/11/20 02:24:27;;;;;;;14.80;4.30;;;;;;;12.96;100.00;100808.53;5257843;28;20025;-75
2023/11/20 02:27:13;;;;;;;13.75;4.55;;;;;;;13.11;100.00;100809.69;5256110;28;20047;-75
2023/11/20 02:29:53;;;;;;;14.13;3.67;;;;;;;13.07;100.00;100803.09;5256881;28;20043;-75
2023/11/20 02:32:25;;;;;;;16.10;4.13;;;;;;;12.94;100.00;100800.78;5255682;28;20036;-75
2023/11/20 02:34:57;;;;;;;14.48;3.28;;;;;;;12.89;100.00;100805.66;5256255;28;20033;-75
2023/11/20 02:37:29;;;;;;;10.75;3.35;;;;;;;12.81;100.00;100805.56;5255548;28;20021;-75
2023/11/20 02:40:01;;;;;;;12.88;3.90;;;;;;;12.77;100.00;100796.31;5251905;28;20031;-75
2023/11/20 02:42:33;;;;;;;20.15;4.72;;;;;;;12.74;100.00;100804.50;5257448;28;20025;-75
2023/11/20 02:45:06;;;;;;;13.63;3.80;;;;;;;12.68;100.00;100800.63;5248820;28;20111;-75
2023/11/20 02:47:38;;;;;;;17.73;4.30;;;;;;;12.70;100.00;100803.94;5256496;28;20028;-75
2023/11/20 02:50:10;;;;;;;19.27;3.85;;;;;;;12.69;100.00;100794.41;5248791;28;20025;-75
2023/11/20 02:52:42;;;;;;;15.70;3.55;;;;;;;12.62;100.00;100796.78;5251462;28;20029;-75
2023/11/20 02:55:14;;;;;;;19.40;4.35;;;;;;;12.64;100.00;100794.00;5253816;28;20037;-75
2023/11/20 02:57:46;;;;;;;17.20;3.57;;;;;;;12.72;100.00;100801.97;5252978;28;20048;-75
2023/11/20 03:00:19;;;;;;;15.02;3.85;;;;;;;12.66;100.00;100797.31;5254057;28;20033;-75
2023/11/20 03:02:51;;;;;;;13.45;2.90;;;;;;;12.64;100.00;100797.44;5254806;28;20028;-75
2023/11/20 03:05:23;;;;;;;16.10;3.97;;;;;;;12.66;100.00;100798.16;5256506;28;20033;-75
2023/11/20 03:07:55;;;;;;;11.90;4.20;;;;;;;12.66;100.00;100798.16;5254767;28;20039;-75
2023/11/20 03:10:27;;;;;;;17.40;4.10;;;;;;;12.65;100.00;100795.66;5255365;28;20043;-75
2023/11/20 03:12:59;;;;;;;12.63;3.85;;;;;;;12.60;100.00;100798.72;5255763;28;20048;-75
2023/11/20 03:15:30;;;;;;;14.23;4.15;;;;;;;12.55;100.00;100789.63;5255772;28;20028;-75
2023/11/20 03:18:02;;;;;;;12.80;3.92;;;;;;;12.62;100.00;100794.16;5254241;28;20112;-75
2023/11/20 03:20:34;;;;;;;16.88;5.53;;;;;;;12.61;100.00;100789.03;5235884;28;20033;-75
2023/11/20 03:23:06;;;;;;;16.92;5.47;;;;;;;12.65;100.00;100790.38;5234726;28;20049;-75
2023/11/20 03:25:39;;;;;;;15.68;6.70;;;;;;;12.66;100.00;100790.25;5254295;28;20032;-75
2023/11/20 03:28:11;;;;;;;16.95;5.97;;;;;;;12.67;100.00;100783.19;5254415;28;20521;-75
2023/11/20 03:30:43;;;;;;;19.70;6.13;;;;;;;12.68;100.00;100784.03;5251958;28;20040;-75
2023/11/20 03:33:15;;;;;;;13.43;5.97;;;;;;;12.64;100.00;100786.94;5255557;28;20032;-75
2023/11/20 03:35:46;;;;;;;15.07;6.65;;;;;;;12.64;100.00;100794.00;5253591;28;20421;-75
2023/11/20 03:38:18;;;;;;;13.50;6.18;;;;;;;12.65;100.00;100793.03;5250189;28;20037;-74
2023/11/20 03:40:50;;;;;;;13.30;6.13;;;;;;;12.70;100.00;100798.69;5253889;28;20024;-75
2023/11/20 03:43:23;;;;;;;19.27;7.40;;;;;;;12.69;100.00;100793.56;5255972;28;20062;-75
2023/11/20 03:45:55;;;;;;;14.75;7.22;;;;;;;12.76;100.00;100798.09;5253547;28;20041;-75
2023/11/20 03:48:27;;;;;;;22.25;8.73;;;;;;;12.76;100.00;100794.63;5254980;28;20021;-75
2023/11/20 03:51:01;;;;;;;16.88;7.90;;;;;;;12.76;100.00;100810.41;5255989;28;20466;-74
2023/11/20 03:53:34;;;;;;;17.67;7.13;;;;;;;12.80;100.00;100809.97;5252485;28;20033;-74
2023/11/20 03:56:08;;;;;;;18.52;7.28;;;;;;;12.83;100.00;100817.56;5252887;28;20040;-74
2023/11/20 03:58:42;;;;;;;17.27;6.57;;;;;;;12.85;100.00;100818.28;5252012;28;20041;-74
2023/11/20 04:01:14;;;;;;;16.50;6.35;;;;;;;12.86;100.00;100811.22;5254262;28;20029;-74
2023/11/20 04:03:46;;;;;;;18.20;6.30;;;;;;;12.83;100.00;100806.22;5254301;28;20025;-75
2023/11/20 04:06:18;;;;;;;16.40;6.57;;;;;;;12.83;100.00;100804.44;5252447;28;20035;-74
2023/11/20 04:08:51;;;;;;;18.67;7.32;;;;;;;12.87;100.00;100808.41;5252692;28;20059;-74
2023/11/20 04:11:23;;;;;;;16.13;5.93;;;;;;;12.81;100.00;100809.03;5253712;28;20064;-75
2023/11/20 04:13:55;;;;;;;17.20;6.55;;;;;;;12.76;100.00;100808.59;5250629;28;20029;-74
2023/11/20 04:16:27;;;;;;;14.57;5.30;;;;;;;12.78;100.00;100809.31;5253224;28;20041;-75
2023/11/20 04:18:59;;;;;;;14.88;5.13;;;;;;;12.76;100.00;100810.41;5253207;28;20467;-75
2023/11/20 04:21:31;;;;;;;14.40;4.43;;;;;;;12.73;100.00;100800.19;5253142;28;20037;-75
2023/11/20 04:24:04;;;;;;;17.55;4.47;;;;;;;12.69;100.00;100815.44;5251725;28;20033;-75
2023/11/20 04:26:36;;;;;;;16.00;4.90;;;;;;;12.71;100.00;100810.03;5254464;28;20036;-75
2023/11/20 04:29:07;;;;;;;16.75;4.82;;;;;;;12.67;100.00;100812.13;5253009;28;20039;-75
2023/11/20 04:31:39;;;;;;;17.85;4.78;;;;;;;12.65;100.00;100814.03;5251525;28;20029;-75
2023/11/20 04:34:11;;;;;;;14.70;4.88;;;;;;;12.62;100.00;100811.72;5255038;28;20458;-75
2023/11/20 04:36:43;;;;;;;14.80;4.28;;;;;;;12.66;100.00;100815.72;5253598;28;20035;-75
2023/11/20 04:39:15;;;;;;;14.73;4.57;;;;;;;12.66;100.00;100813.91;5252702;28;20027;-75
2023/11/20 04:41:47;;;;;;;15.02;4.32;;;;;;;12.66;100.00;100813.91;5253774;28;20021;-75
2023/11/20 04:44:19;;;;;;;13.30;4.05;;;;;;;12.68;100.00;100815.56;5250938;28;20033;-75
2023/11/20 04:46:51;;;;;;;16.77;4.45;;;;;;;12.62;100.00;100815.19;5250646;28;20037;-75
2023/11/20 04:49:23;;;;;;;13.63;4.20;;;;;;;12.58;100.00;100807.75;5232668;28;20398;-75
2023/11/20 04:51:55;;;;;;;17.77;5.35;;;;;;;12.57;100.00;100808.69;5253790;28;20059;-75
2023/11/20 04:54:27;;;;;;;18.33;4.63;;;;;;;12.51;100.00;100802.22;5254170;28;20221;-75
2023/11/20 04:56:59;;;;;;;13.07;4.40;;;;;;;12.59;100.00;100797.06;5233930;28;20700;-75
2023/11/20 04:59:31;;;;;;;11.43;4.20;;;;;;;12.58;100.00;100799.84;5252134;28;20025;-75
2023/11/20 05:02:03;;;;;;;17.23;4.72;;;;;;;12.58;100.00;100805.09;5253136;28;20017;-75
2023/11/20 05:04:35;;;;;;;17.88;4.53;;;;;;;12.60;100.00;100801.34;5253826;28;20095;-75
2023/11/20 05:07:07;;;;;;;15.80;4.40;;;;;;;12.59;100.00;100802.31;5248350;28;20024;-75
2023/11/20 05:09:39;;;;;;;15.32;4.13;;;;;;;12.64;100.00;100799.25;5254668;28;20028;-75
2023/11/20 05:12:11;;;;;;;17.75;5.05;;;;;;;12.65;100.00;100796.50;5254852;28;20382;-75
2023/11/20 05:14:43;;;;;;;16.00;4.33;;;;;;;12.70;100.00;100806.56;5252147;28;20052;-75
2023/11/20 05:17:18;;;;;;;12.50;3.83;;;;;;;12.70;100.00;100803.94;5253447;28;20029;-75
2023/11/20 05:19:50;;;;;;;16.83;4.30;;;;;;;12.65;100.00;100800.91;5252453;28;20040;-75
2023/11/20 05:22:22;;;;;;;12.73;4.00;;;;;;;12.64;100.00;100799.25;5253669;28;20049;-75
2023/11/20 05:24:54;;;;;;;15.70;4.13;;;;;;;12.64;100.00;100807.97;5257988;28;20802;-75
2023/11/20 05:27:26;;;;;;;15.70;3.70;;;;;;;12.64;100.00;100807.97;5258286;28;20036;-75
2023/11/20 05:29:58;;;;;;;14.15;4.00;;;;;;;12.64;100.00;100810.59;5256604;28;20033;-75
2023/11/20 05:32:29;;;;;;;14.07;4.70;;;;;;;12.66;100.00;100813.91;5254628;28;20029;-74
2023/11/20 05:35:01;;;;;;;16.30;3.53;;;;;;;12.65;100.00;100811.41;5256782;28;20033;-75
2023/11/20 05:37:33;;;;;;;16.08;4.50;;;;;;;12.66;100.00;100818.34;5255905;28;20463;-75
2023/11/20 05:40:07;;;;;;;16.20;3.95;;;;;;;12.68;100.00;100815.56;5254849;28;20056;-75
2023/11/20 05:42:40;;;;;;;18.92;4.07;;;;;;;12.63;100.00;100811.56;5257163;28;20036;-75
2023/11/20 05:45:11;;;;;;;14.95;4.32;;;;;;;12.71;100.00;100813.47;5254821;28;20037;-75
2023/11/20 05:47:43;;;;;;;16.55;3.95;;;;;;;12.72;100.00;100814.31;5256087;28;20039;-75
2023/11/20 05:50:15;;;;;;;15.55;4.00;;;;;;;12.69;100.00;100812.81;5254462;28;20363;-75
2023/11/20 05:52:47;;;;;;;20.70;4.25;;;;;;;12.73;100.00;100808.91;5255120;28;20033;-75
2023/11/20 05:55:19;;;;;;;14.52;4.10;;;;;;;12.73;100.00;100808.91;5252196;28;20103;-75
2023/11/20 05:57:51;;;;;;;14.10;3.83;;;;;;;12.70;100.00;100811.00;5251448;28;20021;-75
2023/11/20 06:00:23;;;;;;;17.08;4.18;;;;;;;12.72;100.00;100815.13;5255284;28;20028;-75
2023/11/20 06:02:55;;;;;;;18.67;4.20;;;;;;;12.68;100.00;100815.56;5256386;28;20458;-75
2023/11/20 06:05:27;;;;;;;19.45;4.38;;;;;;;12.68;100.00;100821.66;5256742;28;20048;-74
2023/11/20 06:07:59;;;;;;;17.13;4.25;;;;;;;12.64;100.00;100820.28;5248532;28;20037;-75
2023/11/20 06:10:31;;;;;;;17.27;4.63;;;;;;;12.61;100.00;100828.44;5257366;28;20025;-75
2023/11/20 06:13:03;;;;;;;12.30;3.17;;;;;;;12.61;100.00;100826.69;5256370;28;20561;-75
2023/11/20 06:15:35;;;;;;;17.83;4.53;;;;;;;12.58;100.00;100834.84;5257937;28;20533;-75
2023/11/20 06:18:07;;;;;;;12.05;3.42;;;;;;;12.59;100.00;100827.78;5257075;28;20368;-75
2023/11/20 06:20:39;;;;;;;15.73;3.92;;;;;;;12.61;100.00;100828.44;5256295;28;20082;-75
2023/11/20 06:23:12;;;;;;;13.75;3.33;;;;;;;12.61;100.00;100836.34;5249833;28;21111;-75
2023/11/20 06:25:44;;;;;;;16.52;4.70;;;;;;;12.49;100.00;100842.75;5254538;28;20437;-75
2023/11/20 06:28:16;;;;;;;15.82;4.35;;;;;;;12.44;100.00;100837.09;5257512;28;20377;-76
2023/11/20 06:30:47;;;;;;;16.50;4.57;;;;;;;12.46;100.00;100838.59;5255955;28;20033;-77
2023/11/20 06:33:20;;;;;;;15.38;3.75;;;;;;;12.40;100.00;100855.75;5253044;28;20033;-76
2023/11/20 06:35:52;;;;;;;17.00;4.28;;;;;;;12.38;100.00;100857.69;5256981;28;20035;-76
2023/11/20 06:38:24;;;;;;;14.95;3.55;;;;;;;12.31;100.00;100850.50;5253844;28;20474;-77
2023/11/20 06:40:56;;;;;;;17.27;4.28;;;;;;;12.26;100.00;100852.75;5251010;28;20475;-76
2023/11/20 06:43:28;;;;;;;17.02;4.18;;;;;;;12.20;100.00;100848.03;5253608;28;20393;-77
2023/11/20 06:46:01;;;;;;;20.53;5.50;;;;;;;12.22;100.00;100851.38;5247821;28;20033;-77
2023/11/20 06:48:33;;;;;;;18.10;4.78;;;;;;;12.11;100.00;100845.28;5243426;28;20025;-76
2023/11/20 06:51:08;;;;;;;21.27;4.70;;;;;;;12.14;100.00;100855.53;5250493;28;20036;-76
2023/11/20 06:53:40;;;;;;;16.17;4.35;;;;;;;12.09;100.00;100842.00;5256893;28;20031;-76
2023/11/20 06:56:19;;;;;;;14.15;4.43;;;;;;;12.24;100.00;100849.44;5249459;28;20029;-84
2023/11/20 06:58:51;;;;;;;17.73;4.13;;;;;;;12.07;100.00;100843.91;5256533;28;20043;-76
2023/11/20 07:01:24;;;;;;;20.10;4.13;;;;;;;12.00;100.00;100847.25;5256226;28;20386;-77
2023/11/20 07:03:56;;;;;;;19.40;4.18;;;;;;;11.99;100.00;100835.91;5257522;28;20029;-76
2023/11/20 07:06:28;;;;;;;22.63;4.70;;;;;;;12.07;100.00;100845.72;5254217;28;21410;-77
2023/11/20 07:09:00;;;;;;;17.00;3.92;;;;;;;11.98;100.00;100843.94;5254063;28;20036;-78
2023/11/20 07:11:32;;;;;;;16.48;4.45;;;;;;;12.01;100.00;100851.50;5253745;28;20029;-77
2023/11/20 07:14:03;;;;;;;14.48;3.75;;;;;;;11.93;100.00;100860.94;5255870;28;20040;-77
2023/11/20 07:16:36;;;;;;;19.38;4.90;;;;;;;11.91;100.00;100860.25;5256830;28;20051;-76
2023/11/20 07:19:08;;;;;;;21.70;4.85;;;;;;;11.92;100.00;100863.69;5256902;28;20028;-76
2023/11/20 07:21:43;;;;;;;17.48;3.55;;;;;;;11.84;100.00;100861.75;5254955;28;20069;-77
2023/11/20 07:24:15;;;;;;;14.07;3.83;;;;;;;11.91;100.00;100868.13;5251147;28;20497;-77
2023/11/20 07:26:47;;;;;;;17.73;4.47;;;;;;;11.87;100.00;100868.53;5253145;28;20033;-76
2023/11/20 07:29:19;;;;;;;18.52;3.88;;;;;;;11.87;100.00;100874.59;5252514;28;20217;-77
2023/11/20 07:31:51;;;;;;;14.77;3.58;;;;;;;11.84;100.00;100885.38;5252978;28;20047;-76
2023/11/20 07:34:23;;;;;;;16.83;3.75;;;;;;;11.82;100.00;100887.28;5254853;28;20041;-76
2023/11/20 07:36:55;;;;;;;20.60;3.72;;;;;;;11.81;100.00;100883.00;5253279;28;20484;-76
2023/11/20 07:39:27;;;;;;;13.75;3.17;;;;;;;11.72;100.00;100886.44;5254777;28;20029;-76
2023/11/20 07:42:00;;;;;;;16.30;3.40;;;;;;;11.78;100.00;100890.31;5254987;28;20463;-76
2023/11/20 07:44:33;;;;;;;;;;;;;;;12.46;100.00;100887.69;5254378;28;20048;-76
2023/11/20 07:47:05;;;;;;;14.37;4.00;;;;;;;11.90;100.00;100890.09;5253373;28;20326;-76
2023/11/20 07:49:38;;;;;;;17.60;3.42;;;;;;;11.82;100.00;100895.19;5254089;28;20033;-76
2023/11/20 07:52:10;;;;;;;14.50;3.63;;;;;;;11.77;100.00;100894.72;5254881;28;20033;-76
2023/11/20 07:54:43;;;;;;;17.95;4.03;;;;;;;11.78;100.00;100892.94;5254441;28;20453;-76
2023/11/20 07:57:15;;;;;;;18.52;4.22;;;;;;;11.81;100.00;100892.66;5252976;28;20029;-76
2023/11/20 07:59:47;;;;;;;21.40;4.40;;;;;;;11.76;100.00;100900.13;5251877;28;20032;-76
2023/11/20 08:02:20;;;;;;;20.83;5.40;;;;;;;11.82;100.00;100897.81;5253985;28;20025;-76
2023/11/20 08:04:52;;;;;;;11.85;3.15;;;;;;;11.82;100.00;100882.03;5251105;28;20032;-76
2023/11/20 08:07:24;;;;;;;21.35;4.53;;;;;;;11.87;100.00;100885.13;5251996;28;20857;-76
2023/11/20 08:09:56;;;;;;;20.67;4.60;;;;;;;11.88;100.00;100891.19;5253266;28;20102;-76
2023/11/20 08:12:28;;;;;;;19.83;4.68;;;;;;;11.96;100.00;100893.13;5249363;28;20044;-76
2023/11/20 08:15:00;;;;;;;15.55;4.22;;;;;;;12.00;100.00;100891.88;5247164;28;20033;-76
2023/11/20 08:17:32;;;;;;;18.70;4.30;;;;;;;12.00;100.00;100889.25;5254920;28;20033;-76
2023/11/20 08:20:06;;;;;;;18.92;4.35;;;;;;;12.07;100.00;100891.19;5251270;28;20025;-76
2023/11/20 08:22:38;;;;;;;14.55;4.47;;;;;;;12.06;100.00;100886.91;5250927;28;20041;-76
2023/11/20 08:25:10;;;;;;;15.48;4.57;;;;;;;12.07;100.00;100879.84;5256146;28;20024;-77
2023/11/20 08:27:42;;;;;;;16.40;4.72;;;;;;;12.08;100.00;100871.00;5255429;28;20371;-76
2023/11/20 08:30:14;;;;;;;15.20;4.32;;;;;;;12.11;100.00;100889.13;5252791;28;20636;-76
2023/11/20 08:32:46;;;;;;;15.43;4.57;;;;;;;12.09;100.00;100885.81;5248320;28;20105;-76
2023/11/20 08:35:17;;;;;;;13.40;3.70;;;;;;;12.10;100.00;100879.59;5252130;28;20032;-76
2023/11/20 08:37:49;;;;;;;15.90;3.75;;;;;;;12.11;100.00;100886.50;5253294;28;20500;-76
2023/11/20 08:40:21;;;;;;;17.35;4.53;;;;;;;12.09;100.00;100883.19;5253841;28;20428;-76
2023/11/20 08:42:53;;;;;;;15.13;4.25;;;;;;;12.08;100.00;100886.75;5250986;28;20091;-76
2023/11/20 08:45:26;;;;;;;15.90;3.78;;;;;;;12.10;100.00;100879.59;5251711;28;20025;-76
2023/11/20 08:47:58;;;;;;;11.32;3.75;;;;;;;12.16;100.00;100877.25;5246240;28;20025;-76
2023/11/20 08:50:30;;;;;;;16.98;4.18;;;;;;;12.14;100.00;100873.91;5251752;28;20708;-76
2023/11/20 08:53:02;;;;;;;13.63;3.60;;;;;;;12.12;100.00;100867.97;5253008;28;20108;-76
2023/11/20 08:55:35;;;;;;;13.20;3.45;;;;;;;12.24;100.00;100868.66;5253779;28;20035;-76
2023/11/20 08:58:08;;;;;;;12.20;3.78;;;;;;;12.22;100.00;100867.13;5254520;28;20493;-76
2023/11/20 09:00:40;;;;;;;;;;;;;;;12.87;100.00;100866.25;5257112;28;20037;-76
2023/11/20 09:03:11;;;;;;;12.00;3.80;;;;;;;12.36;100.00;100859.66;5257579;28;19919;-76
2023/11/20 09:05:43;;;;;;;12.27;3.40;;;;;;;12.41;100.00;100867.09;5257933;28;20059;-76
2023/11/20 09:08:15;;;;;;;14.75;3.40;;;;;;;12.38;100.00;100862.13;5255170;28;20048;-76
2023/11/20 09:10:47;;;;;;;15.23;3.83;;;;;;;12.36;100.00;100864.91;5258102;28;20466;-76
2023/11/20 09:13:19;;;;;;;14.40;3.85;;;;;;;12.40;100.00;100863.66;5256652;28;20397;-76
2023/11/20 09:15:51;;;;;;;17.13;3.63;;;;;;;12.46;100.00;100859.59;5258108;28;20028;-75
2023/11/20 09:18:25;;;;;;;10.77;3.55;;;;;;;12.50;100.00;100852.28;5239363;28;20399;-75
2023/11/20 09:21:01;;;;;;;10.93;3.83;;;;;;;12.56;100.00;100857.78;5253710;28;20035;-75
2023/11/20 09:23:33;;;;;;;15.77;4.80;;;;;;;12.59;100.00;100854.88;5257121;28;20048;-76
2023/11/20 09:26:11;;;;;;;11.02;3.33;;;;;;;12.65;100.00;100849.06;5255337;28;20032;-75
2023/11/20 09:28:43;;;;;;;12.55;3.40;;;;;;;12.58;100.00;100847.16;5256838;28;20029;-76
2023/11/20 09:31:17;;;;;;;12.57;3.15;;;;;;;12.64;100.00;100847.41;5253000;28;20828;-76
2023/11/20 09:33:50;;;;;;;14.80;3.42;;;;;;;12.68;100.00;100847.09;5254392;28;20516;-76
2023/11/20 09:36:23;;;;;;;13.70;3.20;;;;;;;12.83;100.00;100851.75;5256107;28;20044;-76
2023/11/20 09:38:55;;;;;;;15.18;4.28;;;;;;;12.79;100.00;100850.38;5254681;28;20385;-76
2023/11/20 09:41:29;;;;;;;10.85;3.67;;;;;;;12.88;100.00;100854.78;5252545;28;20052;-76
2023/11/20 09:44:01;;;;;;;13.05;3.58;;;;;;;12.96;100.00;100858.50;5253613;28;20359;-76
2023/11/20 09:46:36;;;;;;;11.40;2.78;;;;;;;13.08;100.00;100855.53;5255157;28;20417;-76
2023/11/20 09:49:08;;;;;;;13.93;4.03;;;;;;;13.07;100.00;100859.13;5255455;28;20514;-76
2023/11/20 09:51:43;;;;;;;13.13;3.65;;;;;;;13.08;100.00;100847.63;5257629;28;20047;-76
2023/11/20 09:54:17;;;;;;;14.05;4.57;;;;;;;12.99;100.00;100852.94;5255426;28;20025;-77
2023/11/20 09:56:49;;;;;;;11.60;3.25;;;;;;;13.01;100.00;100851.00;5254673;28;20043;-77
2023/11/20 09:59:21;;;;;;;13.75;3.67;;;;;;;13.06;100.00;100844.31;5255200;28;20584;-77
2023/11/20 10:01:53;;;;;;;11.00;3.17;;;;;;;13.04;100.00;100837.56;5256717;28;20029;-76
2023/11/20 10:04:29;;;;;;;10.27;3.25;;;;;;;13.22;100.00;100853.38;5257024;28;20029;-76
2023/11/20 10:07:07;;;;;;;11.48;3.10;;;;;;;13.38;100.00;100845.72;5257424;28;20033;-75
2023/11/20 10:09:45;;;;;;;15.80;3.90;;;;;;;13.36;100.00;100832.69;5254473;28;20032;-75
2023/11/20 10:12:18;;;;;;;11.32;3.20;;;;;;;13.33;100.00;100833.00;5255426;28;20041;-75
2023/11/20 10:14:50;;;;;;;;;;;;;;;14.06;100.00;100827.56;5254387;28;20028;-75
2023/11/20 10:17:22;;;;;;;11.63;3.05;;;;;;;13.44;100.00;100831.94;5248762;28;20282;-75
2023/11/20 10:19:54;;;;;;;12.30;3.30;;;;;;;13.51;100.00;100826.91;5255659;28;20028;-75
2023/11/20 10:22:26;;;;;;;10.88;2.88;;;;;;;13.48;100.00;100817.50;5255789;28;20039;-75
2023/11/20 10:24:58;;;;;;;11.10;3.15;;;;;;;13.54;100.00;100824.81;5250818;28;20041;-75
2023/11/20 10:27:31;;;;;;;10.45;2.72;;;;;;;13.52;100.00;100821.47;5255490;28;20405;-75
2023/11/20 10:30:03;;;;;;;11.70;3.53;;;;;;;13.48;100.00;100827.19;5253926;28;20028;-75
2023/11/20 10:32:41;;;;;;;9.07;2.60;;;;;;;13.66;100.00;100828.03;5252447;28;20034;-75
2023/11/20 10:35:15;;;;;;;13.27;3.60;;;;;;;13.52;100.00;100821.47;5251692;28;20029;-75
2023/11/20 10:37:54;;;;;;;9.07;2.53;;;;;;;13.62;100.00;100824.06;5253149;28;20037;-75
2023/11/20 10:40:27;;;;;;;9.38;2.80;;;;;;;13.49;100.00;100815.72;5254086;28;20025;-75
2023/11/20 10:42:58;;;;;;;10.53;3.07;;;;;;;13.50;100.00;100812.09;5253907;28;20101;-75
2023/11/20 10:45:33;;;;;;;10.90;2.70;;;;;;;13.44;100.00;100810.88;5252512;28;20029;-75
2023/11/20 10:48:09;;;;;;;10.93;3.03;;;;;;;13.42;100.00;100819.94;5256771;28;20027;-75
2023/11/20 10:50:46;;;;;;;9.07;2.88;;;;;;;13.43;100.00;100805.78;5235621;28;20041;-75
2023/11/20 10:53:21;;;;;;;10.50;2.45;;;;;;;13.42;100.00;100804.97;5256093;28;20111;-75
2023/11/20 10:55:55;;;;;;;11.27;2.80;;;;;;;13.41;100.00;100812.97;5256443;28;20021;-75
2023/11/20 10:58:29;;;;;;;10.90;3.25;;;;;;;13.41;100.00;100811.22;5254806;28;20025;-75
2023/11/20 11:01:04;;;;;;;10.95;2.78;;;;;;;13.35;100.00;100807.34;5254509;28;20379;-75
2023/11/20 11:03:37;;;;;;;10.48;2.92;;;;;;;13.39;100.00;100808.72;5252500;28;20029;-75
2023/11/20 11:06:10;;;;;;;;;;;;;;;14.08;100.00;100801.88;5252519;28;20037;-75
2023/11/20 11:08:45;;;;;;;10.15;2.30;;;;;;;13.45;100.00;100799.41;5254039;28;19909;-75
2023/11/20 11:11:18;;;;;;;9.00;1.90;;;;;;;13.35;100.00;100796.81;5253979;28;20034;-75
2023/11/20 11:13:51;;;;;;;7.72;2.25;;;;;;;13.42;100.00;100794.44;5254585;28;20328;-75
2023/11/20 11:16:31;;;;;;;8.65;2.95;;;;;;;13.60;100.00;100799.72;5253116;28;20028;-75
2023/11/20 11:19:08;;;;;;;10.88;3.15;;;;;;;13.51;100.00;100792.69;5251523;28;20470;-75
2023/11/20 11:22:13;;;;;;;9.07;2.47;;;;;;;13.85;100.00;100791.00;5254535;28;20461;-75
2023/11/20 11:24:47;;;;;;;6.88;2.13;;;;;;;13.48;100.00;100780.66;5251481;28;20060;-75
2023/11/20 11:27:21;;;;;;;8.38;2.42;;;;;;;13.55;100.00;100784.34;5253155;28;20104;-75
2023/11/20 11:29:57;;;;;;;7.03;2.05;;;;;;;13.62;100.00;100790.66;5254321;28;20032;-75
2023/11/20 11:32:51;;;;;;;10.02;2.35;;;;;;;13.82;100.00;100780.78;5250879;28;20021;-75
2023/11/20 11:35:29;;;;;;;9.88;1.95;;;;;;;13.46;100.00;100785.25;5252155;28;20033;-75
2023/11/20 11:38:34;;;;;;;8.93;2.40;;;;;;;13.57;100.00;100790.28;5251161;28;20414;-75